Airfield :
LOGIN :

Register | Disclaimer

   EN    FR    IT 

 










Legend :    VFR   Marginal VFR   IFR   Intensive IFR   Very Intensive IFR
Visi :
Ceiling :
>= 8 km
>= 3000ft
5 to 8 km
1000 to 3000 ft
1500m to 5 km
500 to 1000 ft
800 to 1500m
200 to 500 ft
< 800m
< 200 ft
Symbols :   Thunderstorms  Fog  Heavy snow  Heavy precipitations  Wind > 20 kt
SIGMETs :     Misc.  Thunderstorms  Icing  Turbulence  Mountain Waves  Volcanic Ashes






- Airport Elevation : 277 ft
- IATA code : JER


EGJJ - Jersey

CURRENT METAR :
  • 210920Z 30011KT 260V330 9999 FEW008 SCT009 BKN027 17/16 Q1013

EXPIRED METARs :
  • 210850Z 30011KT 270V330 9999 SCT008 BKN023 17/16 Q1013
  • 210820Z 30011KT 270V360 9999 FEW007 SCT022 18/16 Q1012
  • 210750Z 30011KT 270V340 9999 SCT007 17/17 Q1012
  • 210720Z 30011KT 270V330 9999 FEW007 SCT017 BKN042 17/17 Q1012
  • 210650Z 31010KT 270V330 9999 FEW008 BKN040 17/16 Q1011
  • 210620Z 30009KT 270V330 9999 FEW004 SCT035 16/16 Q1011
  • 210550Z 32005KT 270V360 9999 FEW004 SCT036 16/16 Q1010
  • 210520Z 33006KT 290V010 9999 VCSH FEW005 SCT020 BKN026 15/15 Q1010

TAF TAF EGJJ
Valid from the 21 at 09:00 until the 21 at 18:00 UTC


210755Z 2109/2118 30013KT 9999 FEW010 SCT025
PROB30
TEMPO 2109/2112 SCT003 BKN006
ATIS : +44 1534 498 073



MET'MAP, your aeronautical weather chart ! - Copyright ORBIFLY December 2007 - Disclaimer

ORBIFLY MET'MAP TEAM :

Programming & Development : Alexandra Zaïnal
Original concept : Baudouin d'Aumeries
Technical & hardware support : Manuel Goepfert
Assistance : Marc-Olivier Méhu




SOURCES & CREDITS :

   NOAA